sensor_id;sensor_type;location;lat;lon;timestamp;temperature;humidity
77582;DHT22;66726;52.388;9.986;2023-11-22T00:00:18;5.00;99.90
77582;DHT22;66726;52.388;9.986;2023-11-22T00:02:47;5.00;99.90
77582;DHT22;66726;52.388;9.986;2023-11-22T00:05:16;4.90;99.90
77582;DHT22;66726;52.388;9.986;2023-11-22T00:07:45;4.90;99.90
77582;DHT22;66726;52.388;9.986;2023-11-22T00:10:14;4.90;99.90
77582;DHT22;66726;52.388;9.986;2023-11-22T00:12:42;4.90;99.90
77582;DHT22;66726;52.388;9.986;2023-11-22T00:15:10;4.90;99.90
77582;DHT22;66726;52.388;9.986;2023-11-22T00:17:39;4.70;99.90
77582;DHT22;66726;52.388;9.986;2023-11-22T00:20:08;4.80;99.90
77582;DHT22;66726;52.388;9.986;2023-11-22T00:22:37;4.80;99.90
77582;DHT22;66726;52.388;9.986;2023-11-22T00:25:07;4.80;99.90
77582;DHT22;66726;52.388;9.986;2023-11-22T00:27:40;4.80;99.90
77582;DHT22;66726;52.388;9.986;2023-11-22T00:30:09;4.60;99.90
77582;DHT22;66726;52.388;9.986;2023-11-22T00:32:38;4.50;99.90
77582;DHT22;66726;52.388;9.986;2023-11-22T00:35:08;4.60;99.90
77582;DHT22;66726;52.388;9.986;2023-11-22T00:37:36;4.60;99.90
77582;DHT22;66726;52.388;9.986;2023-11-22T00:40:07;4.60;99.90
77582;DHT22;66726;52.388;9.986;2023-11-22T00:42:38;4.50;99.90
77582;DHT22;66726;52.388;9.986;2023-11-22T00:45:09;4.40;99.90
77582;DHT22;66726;52.388;9.986;2023-11-22T00:47:39;4.20;99.90
77582;DHT22;66726;52.388;9.986;2023-11-22T00:50:07;4.40;99.90
77582;DHT22;66726;52.388;9.986;2023-11-22T00:52:36;4.40;99.90
77582;DHT22;66726;52.388;9.986;2023-11-22T00:55:06;4.50;99.90
77582;DHT22;66726;52.388;9.986;2023-11-22T00:57:36;4.40;99.90
77582;DHT22;66726;52.388;9.986;2023-11-22T01:00:05;4.40;99.90
77582;DHT22;66726;52.388;9.986;2023-11-22T01:02:36;4.40;99.90
77582;DHT22;66726;52.388;9.986;2023-11-22T01:05:06;4.40;99.90
77582;DHT22;66726;52.388;9.986;2023-11-22T01:07:38;4.30;99.90
77582;DHT22;66726;52.388;9.986;2023-11-22T01:10:08;4.30;99.90
77582;DHT22;66726;52.388;9.986;2023-11-22T01:12:37;4.30;99.90
77582;DHT22;66726;52.388;9.986;2023-11-22T01:15:07;4.30;99.90
77582;DHT22;66726;52.388;9.986;2023-11-22T01:17:36;4.30;99.90
77582;DHT22;66726;52.388;9.986;2023-11-22T01:20:05;4.30;99.90
77582;DHT22;66726;52.388;9.986;2023-11-22T01:22:36;4.20;99.90
77582;DHT22;66726;52.388;9.986;2023-11-22T01:25:06;4.30;99.90
77582;DHT22;66726;52.388;9.986;2023-11-22T01:27:36;4.20;99.90
77582;DHT22;66726;52.388;9.986;2023-11-22T01:30:05;4.20;99.90
77582;DHT22;66726;52.388;9.986;2023-11-22T01:32:34;4.10;99.90
77582;DHT22;66726;52.388;9.986;2023-11-22T01:35:03;4.00;99.90
77582;DHT22;66726;52.388;9.986;2023-11-22T01:37:32;4.00;99.90
77582;DHT22;66726;52.388;9.986;2023-11-22T01:40:00;3.90;99.90
77582;DHT22;66726;52.388;9.986;2023-11-22T01:42:31;3.90;99.90
77582;DHT22;66726;52.388;9.986;2023-11-22T01:44:59;3.80;99.90
77582;DHT22;66726;52.388;9.986;2023-11-22T01:47:27;3.70;99.90
77582;DHT22;66726;52.388;9.986;2023-11-22T01:49:56;3.80;99.90
77582;DHT22;66726;52.388;9.986;2023-11-22T01:52:25;4.40;99.90
77582;DHT22;66726;52.388;9.986;2023-11-22T01:54:54;3.70;99.90
77582;DHT22;66726;52.388;9.986;2023-11-22T01:57:22;3.80;99.90
77582;DHT22;66726;52.388;9.986;2023-11-22T01:59:52;3.60;99.90
77582;DHT22;66726;52.388;9.986;2023-11-22T02:02:21;3.60;99.90
77582;DHT22;66726;52.388;9.986;2023-11-22T02:04:50;3.80;99.90
77582;DHT22;66726;52.388;9.986;2023-11-22T02:07:18;3.80;99.90
77582;DHT22;66726;52.388;9.986;2023-11-22T02:09:46;3.90;99.90
77582;DHT22;66726;52.388;9.986;2023-11-22T02:12:14;3.90;99.90
77582;DHT22;66726;52.388;9.986;2023-11-22T02:14:42;3.80;99.90
77582;DHT22;66726;52.388;9.986;2023-11-22T02:17:12;3.80;99.90
77582;DHT22;66726;52.388;9.986;2023-11-22T02:19:40;3.70;99.90
77582;DHT22;66726;52.388;9.986;2023-11-22T02:22:09;3.50;99.90
77582;DHT22;66726;52.388;9.986;2023-11-22T02:24:39;3.70;99.90
77582;DHT22;66726;52.388;9.986;2023-11-22T02:27:07;3.50;99.90
77582;DHT22;66726;52.388;9.986;2023-11-22T02:29:35;3.50;99.90
77582;DHT22;66726;52.388;9.986;2023-11-22T02:32:04;3.30;99.90
77582;DHT22;66726;52.388;9.986;2023-11-22T02:34:32;3.40;99.90
77582;DHT22;66726;52.388;9.986;2023-11-22T02:37:03;3.60;99.90
77582;DHT22;66726;52.388;9.986;2023-11-22T02:39:39;3.50;99.90
77582;DHT22;66726;52.388;9.986;2023-11-22T02:42:16;3.40;99.90
77582;DHT22;66726;52.388;9.986;2023-11-22T02:44:44;3.50;99.90
77582;DHT22;66726;52.388;9.986;2023-11-22T02:47:12;3.30;99.90
77582;DHT22;66726;52.388;9.986;2023-11-22T02:49:41;3.40;99.90
77582;DHT22;66726;52.388;9.986;2023-11-22T02:52:09;3.40;99.90
77582;DHT22;66726;52.388;9.986;2023-11-22T02:54:41;3.40;99.90
77582;DHT22;66726;52.388;9.986;2023-11-22T02:57:12;3.50;99.90
77582;DHT22;66726;52.388;9.986;2023-11-22T02:59:41;3.40;99.90
77582;DHT22;66726;52.388;9.986;2023-11-22T03:02:09;3.40;99.90
77582;DHT22;66726;52.388;9.986;2023-11-22T03:04:38;3.40;99.90
77582;DHT22;66726;52.388;9.986;2023-11-22T03:07:06;3.30;99.90
77582;DHT22;66726;52.388;9.986;2023-11-22T03:09:34;3.20;99.90
77582;DHT22;66726;52.388;9.986;2023-11-22T03:12:05;3.20;99.90
77582;DHT22;66726;52.388;9.986;2023-11-22T03:14:35;3.10;99.90
77582;DHT22;66726;52.388;9.986;2023-11-22T03:17:03;3.10;99.90
77582;DHT22;66726;52.388;9.986;2023-11-22T03:19:32;3.10;99.90
77582;DHT22;66726;52.388;9.986;2023-11-22T03:22:00;3.00;99.90
77582;DHT22;66726;52.388;9.986;2023-11-22T03:24:30;3.00;99.90
77582;DHT22;66726;52.388;9.986;2023-11-22T03:26:59;3.00;99.90
77582;DHT22;66726;52.388;9.986;2023-11-22T03:29:29;3.20;99.90
77582;DHT22;66726;52.388;9.986;2023-11-22T03:31:57;3.20;99.90
77582;DHT22;66726;52.388;9.986;2023-11-22T03:34:25;3.20;99.90
77582;DHT22;66726;52.388;9.986;2023-11-22T03:36:54;3.10;99.90
77582;DHT22;66726;52.388;9.986;2023-11-22T03:39:22;3.00;99.90
77582;DHT22;66726;52.388;9.986;2023-11-22T03:41:52;3.10;99.90
77582;DHT22;66726;52.388;9.986;2023-11-22T03:44:20;3.10;99.90
77582;DHT22;66726;52.388;9.986;2023-11-22T03:46:49;3.10;99.90
77582;DHT22;66726;52.388;9.986;2023-11-22T03:49:18;3.20;99.90
77582;DHT22;66726;52.388;9.986;2023-11-22T03:51:47;3.20;99.90
77582;DHT22;66726;52.388;9.986;2023-11-22T03:54:15;3.30;99.90
77582;DHT22;66726;52.388;9.986;2023-11-22T03:56:43;3.20;99.90
77582;DHT22;66726;52.388;9.986;2023-11-22T03:59:12;3.10;99.90
77582;DHT22;66726;52.388;9.986;2023-11-22T04:01:40;3.20;99.90
77582;DHT22;66726;52.388;9.986;2023-11-22T04:04:09;3.30;99.90
77582;DHT22;66726;52.388;9.986;2023-11-22T04:06:37;3.20;99.90
77582;DHT22;66726;52.388;9.986;2023-11-22T04:09:07;3.30;99.90
77582;DHT22;66726;52.388;9.986;2023-11-22T04:11:38;3.30;99.90
77582;DHT22;66726;52.388;9.986;2023-11-22T04:14:07;3.20;99.90
77582;DHT22;66726;52.388;9.986;2023-11-22T04:16:35;3.20;99.90
77582;DHT22;66726;52.388;9.986;2023-11-22T04:19:04;3.10;99.90
77582;DHT22;66726;52.388;9.986;2023-11-22T04:21:33;3.10;99.90
77582;DHT22;66726;52.388;9.986;2023-11-22T04:24:02;3.30;99.90
77582;DHT22;66726;52.388;9.986;2023-11-22T04:26:30;3.00;99.90
77582;DHT22;66726;52.388;9.986;2023-11-22T04:28:58;3.10;99.90
77582;DHT22;66726;52.388;9.986;2023-11-22T04:31:27;3.00;99.90
77582;DHT22;66726;52.388;9.986;2023-11-22T04:33:55;3.00;99.90
77582;DHT22;66726;52.388;9.986;2023-11-22T04:36:24;2.90;99.90
77582;DHT22;66726;52.388;9.986;2023-11-22T04:38:54;3.00;99.90
77582;DHT22;66726;52.388;9.986;2023-11-22T04:41:22;3.10;99.90
77582;DHT22;66726;52.388;9.986;2023-11-22T04:43:51;3.20;99.90
77582;DHT22;66726;52.388;9.986;2023-11-22T04:46:20;3.10;99.90
77582;DHT22;66726;52.388;9.986;2023-11-22T04:48:48;3.20;99.90
77582;DHT22;66726;52.388;9.986;2023-11-22T04:51:18;2.90;99.90
77582;DHT22;66726;52.388;9.986;2023-11-22T04:53:46;2.90;99.90
77582;DHT22;66726;52.388;9.986;2023-11-22T04:56:15;2.80;99.90
77582;DHT22;66726;52.388;9.986;2023-11-22T04:58:43;2.80;99.90
77582;DHT22;66726;52.388;9.986;2023-11-22T05:01:11;3.10;99.90
77582;DHT22;66726;52.388;9.986;2023-11-22T05:03:44;3.10;99.90
77582;DHT22;66726;52.388;9.986;2023-11-22T05:06:12;3.00;99.90
77582;DHT22;66726;52.388;9.986;2023-11-22T05:08:40;3.10;99.90
77582;DHT22;66726;52.388;9.986;2023-11-22T05:11:08;3.00;99.90
77582;DHT22;66726;52.388;9.986;2023-11-22T05:13:38;3.10;99.90
77582;DHT22;66726;52.388;9.986;2023-11-22T05:16:07;3.00;99.90
77582;DHT22;66726;52.388;9.986;2023-11-22T05:18:36;2.90;99.90
77582;DHT22;66726;52.388;9.986;2023-11-22T05:21:04;3.00;99.90
77582;DHT22;66726;52.388;9.986;2023-11-22T05:23:32;3.00;99.90
77582;DHT22;66726;52.388;9.986;2023-11-22T05:26:01;2.70;99.90
77582;DHT22;66726;52.388;9.986;2023-11-22T05:28:30;2.70;99.90
77582;DHT22;66726;52.388;9.986;2023-11-22T05:31:01;2.70;99.90
77582;DHT22;66726;52.388;9.986;2023-11-22T05:33:29;2.70;99.90
77582;DHT22;66726;52.388;9.986;2023-11-22T05:35:59;2.70;99.90
77582;DHT22;66726;52.388;9.986;2023-11-22T05:38:27;2.70;99.90
77582;DHT22;66726;52.388;9.986;2023-11-22T05:40:55;2.60;99.90
77582;DHT22;66726;52.388;9.986;2023-11-22T05:43:23;2.60;99.90
77582;DHT22;66726;52.388;9.986;2023-11-22T05:45:53;2.60;99.90
77582;DHT22;66726;52.388;9.986;2023-11-22T05:48:23;2.50;99.90
77582;DHT22;66726;52.388;9.986;2023-11-22T05:50:51;2.60;99.90
77582;DHT22;66726;52.388;9.986;2023-11-22T05:53:19;2.60;99.90
77582;DHT22;66726;52.388;9.986;2023-11-22T05:55:48;2.60;99.90
77582;DHT22;66726;52.388;9.986;2023-11-22T05:58:16;2.60;99.90
77582;DHT22;66726;52.388;9.986;2023-11-22T06:00:45;2.60;99.90
77582;DHT22;66726;52.388;9.986;2023-11-22T06:03:14;2.70;99.90
77582;DHT22;66726;52.388;9.986;2023-11-22T06:05:44;2.50;99.90
77582;DHT22;66726;52.388;9.986;2023-11-22T06:08:12;2.60;99.90
77582;DHT22;66726;52.388;9.986;2023-11-22T06:10:40;2.50;99.90
77582;DHT22;66726;52.388;9.986;2023-11-22T06:13:08;2.60;99.90
77582;DHT22;66726;52.388;9.986;2023-11-22T06:15:39;2.60;99.90
77582;DHT22;66726;52.388;9.986;2023-11-22T06:18:07;2.60;99.90
77582;DHT22;66726;52.388;9.986;2023-11-22T06:20:36;2.50;99.90
77582;DHT22;66726;52.388;9.986;2023-11-22T06:23:06;2.60;99.90
77582;DHT22;66726;52.388;9.986;2023-11-22T06:25:34;2.60;99.90
77582;DHT22;66726;52.388;9.986;2023-11-22T06:28:03;2.60;99.90
77582;DHT22;66726;52.388;9.986;2023-11-22T06:30:31;2.40;99.90
77582;DHT22;66726;52.388;9.986;2023-11-22T06:33:00;2.40;99.90
77582;DHT22;66726;52.388;9.986;2023-11-22T06:35:28;2.50;99.90
77582;DHT22;66726;52.388;9.986;2023-11-22T06:37:56;2.40;99.90
77582;DHT22;66726;52.388;9.986;2023-11-22T06:40:25;2.30;99.90
77582;DHT22;66726;52.388;9.986;2023-11-22T06:42:56;2.30;99.90
77582;DHT22;66726;52.388;9.986;2023-11-22T06:45:24;2.30;99.90
77582;DHT22;66726;52.388;9.986;2023-11-22T06:47:52;2.50;99.90
77582;DHT22;66726;52.388;9.986;2023-11-22T06:50:23;2.30;99.90
77582;DHT22;66726;52.388;9.986;2023-11-22T06:52:52;2.50;99.90
77582;DHT22;66726;52.388;9.986;2023-11-22T06:55:20;2.70;99.90
77582;DHT22;66726;52.388;9.986;2023-11-22T06:57:50;2.60;99.90
77582;DHT22;66726;52.388;9.986;2023-11-22T07:00:18;2.50;99.90
77582;DHT22;66726;52.388;9.986;2023-11-22T07:02:47;2.40;99.90
77582;DHT22;66726;52.388;9.986;2023-11-22T07:05:15;2.50;99.90
77582;DHT22;66726;52.388;9.986;2023-11-22T07:07:43;2.60;99.90
77582;DHT22;66726;52.388;9.986;2023-11-22T07:10:13;2.50;99.90
77582;DHT22;66726;52.388;9.986;2023-11-22T07:12:41;2.60;99.90
77582;DHT22;66726;52.388;9.986;2023-11-22T07:15:11;2.60;99.90
77582;DHT22;66726;52.388;9.986;2023-11-22T07:17:40;2.50;99.90
77582;DHT22;66726;52.388;9.986;2023-11-22T07:20:09;2.50;99.90
77582;DHT22;66726;52.388;9.986;2023-11-22T07:22:43;2.40;99.90
77582;DHT22;66726;52.388;9.986;2023-11-22T07:25:11;2.30;99.90
77582;DHT22;66726;52.388;9.986;2023-11-22T07:27:45;2.40;99.90
77582;DHT22;66726;52.388;9.986;2023-11-22T07:30:15;2.20;99.90
77582;DHT22;66726;52.388;9.986;2023-11-22T07:32:46;2.30;99.90
77582;DHT22;66726;52.388;9.986;2023-11-22T07:35:15;2.50;99.90
77582;DHT22;66726;52.388;9.986;2023-11-22T07:37:43;2.50;99.90
77582;DHT22;66726;52.388;9.986;2023-11-22T07:40:12;2.40;99.90
77582;DHT22;66726;52.388;9.986;2023-11-22T07:42:40;2.50;99.90
77582;DHT22;66726;52.388;9.986;2023-11-22T07:45:10;2.40;99.90
77582;DHT22;66726;52.388;9.986;2023-11-22T07:47:41;2.40;99.90
77582;DHT22;66726;52.388;9.986;2023-11-22T07:50:10;2.40;99.90
77582;DHT22;66726;52.388;9.986;2023-11-22T07:52:39;2.30;99.90
77582;DHT22;66726;52.388;9.986;2023-11-22T07:55:08;2.50;99.90
77582;DHT22;66726;52.388;9.986;2023-11-22T07:57:37;2.40;99.90
77582;DHT22;66726;52.388;9.986;2023-11-22T08:00:07;2.40;99.90
77582;DHT22;66726;52.388;9.986;2023-11-22T08:02:35;2.40;99.90
77582;DHT22;66726;52.388;9.986;2023-11-22T08:05:07;2.40;99.90
77582;DHT22;66726;52.388;9.986;2023-11-22T08:07:36;2.40;99.90
77582;DHT22;66726;52.388;9.986;2023-11-22T08:10:08;2.50;99.90
77582;DHT22;66726;52.388;9.986;2023-11-22T08:12:44;2.40;99.90
77582;DHT22;66726;52.388;9.986;2023-11-22T08:15:14;2.40;99.90
77582;DHT22;66726;52.388;9.986;2023-11-22T08:17:42;2.40;99.90
77582;DHT22;66726;52.388;9.986;2023-11-22T08:20:12;2.40;99.90
77582;DHT22;66726;52.388;9.986;2023-11-22T08:22:45;2.50;99.90
77582;DHT22;66726;52.388;9.986;2023-11-22T08:25:16;2.60;99.90
77582;DHT22;66726;52.388;9.986;2023-11-22T08:27:45;2.60;99.90
77582;DHT22;66726;52.388;9.986;2023-11-22T08:30:13;2.50;99.90
77582;DHT22;66726;52.388;9.986;2023-11-22T08:32:43;2.40;99.90
77582;DHT22;66726;52.388;9.986;2023-11-22T08:35:16;2.30;99.90
77582;DHT22;66726;52.388;9.986;2023-11-22T08:37:44;3.00;99.90
77582;DHT22;66726;52.388;9.986;2023-11-22T08:40:14;2.50;99.90
77582;DHT22;66726;52.388;9.986;2023-11-22T08:42:42;2.40;99.90
77582;DHT22;66726;52.388;9.986;2023-11-22T08:45:10;2.50;99.90
77582;DHT22;66726;52.388;9.986;2023-11-22T08:47:39;2.50;99.90
77582;DHT22;66726;52.388;9.986;2023-11-22T08:50:09;2.50;99.90
77582;DHT22;66726;52.388;9.986;2023-11-22T08:52:40;2.50;99.90
77582;DHT22;66726;52.388;9.986;2023-11-22T08:55:09;2.30;99.90
77582;DHT22;66726;52.388;9.986;2023-11-22T08:57:37;2.50;99.90
77582;DHT22;66726;52.388;9.986;2023-11-22T09:00:08;2.50;99.90
77582;DHT22;66726;52.388;9.986;2023-11-22T09:02:38;2.40;99.90
77582;DHT22;66726;52.388;9.986;2023-11-22T09:05:07;2.40;99.90
77582;DHT22;66726;52.388;9.986;2023-11-22T09:07:36;2.40;99.90
77582;DHT22;66726;52.388;9.986;2023-11-22T09:10:07;2.50;99.90
77582;DHT22;66726;52.388;9.986;2023-11-22T09:12:38;2.50;99.90
77582;DHT22;66726;52.388;9.986;2023-11-22T09:15:08;2.60;99.90
77582;DHT22;66726;52.388;9.986;2023-11-22T09:17:41;2.50;99.90
77582;DHT22;66726;52.388;9.986;2023-11-22T09:20:11;2.60;99.90
77582;DHT22;66726;52.388;9.986;2023-11-22T09:22:43;2.50;99.90
77582;DHT22;66726;52.388;9.986;2023-11-22T09:25:16;2.60;99.90
77582;DHT22;66726;52.388;9.986;2023-11-22T09:27:46;2.60;99.90
77582;DHT22;66726;52.388;9.986;2023-11-22T09:30:18;2.70;99.90
77582;DHT22;66726;52.388;9.986;2023-11-22T09:32:59;2.60;99.90
77582;DHT22;66726;52.388;9.986;2023-11-22T09:35:28;2.70;99.90
77582;DHT22;66726;52.388;9.986;2023-11-22T09:37:58;2.70;99.90
77582;DHT22;66726;52.388;9.986;2023-11-22T09:40:28;2.80;99.90
77582;DHT22;66726;52.388;9.986;2023-11-22T09:42:59;2.70;99.90
77582;DHT22;66726;52.388;9.986;2023-11-22T09:45:29;2.80;99.90
77582;DHT22;66726;52.388;9.986;2023-11-22T09:47:59;2.80;99.90
77582;DHT22;66726;52.388;9.986;2023-11-22T09:50:35;2.80;99.90
77582;DHT22;66726;52.388;9.986;2023-11-22T09:53:11;2.80;99.90
77582;DHT22;66726;52.388;9.986;2023-11-22T09:55:49;2.80;99.90
77582;DHT22;66726;52.388;9.986;2023-11-22T09:58:18;2.80;99.90
77582;DHT22;66726;52.388;9.986;2023-11-22T10:00:49;3.00;99.90
77582;DHT22;66726;52.388;9.986;2023-11-22T10:03:19;2.90;99.90
77582;DHT22;66726;52.388;9.986;2023-11-22T10:05:47;2.90;99.90
77582;DHT22;66726;52.388;9.986;2023-11-22T10:08:16;2.80;99.90
77582;DHT22;66726;52.388;9.986;2023-11-22T10:10:45;3.00;99.90
77582;DHT22;66726;52.388;9.986;2023-11-22T10:13:19;2.90;99.90
77582;DHT22;66726;52.388;9.986;2023-11-22T10:15:47;2.90;99.90
77582;DHT22;66726;52.388;9.986;2023-11-22T10:18:16;2.90;99.90
77582;DHT22;66726;52.388;9.986;2023-11-22T10:20:45;2.90;99.90
77582;DHT22;66726;52.388;9.986;2023-11-22T10:23:16;3.00;99.90
77582;DHT22;66726;52.388;9.986;2023-11-22T10:25:47;3.10;99.90
77582;DHT22;66726;52.388;9.986;2023-11-22T10:28:20;3.00;99.90
77582;DHT22;66726;52.388;9.986;2023-11-22T10:30:50;2.80;99.90
77582;DHT22;66726;52.388;9.986;2023-11-22T10:33:19;2.80;99.90
77582;DHT22;66726;52.388;9.986;2023-11-22T10:35:51;2.90;99.90
77582;DHT22;66726;52.388;9.986;2023-11-22T10:38:20;3.00;99.90
77582;DHT22;66726;52.388;9.986;2023-11-22T10:40:49;3.10;99.90
77582;DHT22;66726;52.388;9.986;2023-11-22T10:43:21;3.00;99.90
77582;DHT22;66726;52.388;9.986;2023-11-22T10:45:53;3.10;99.90
77582;DHT22;66726;52.388;9.986;2023-11-22T10:48:23;2.90;99.90
77582;DHT22;66726;52.388;9.986;2023-11-22T10:50:53;2.90;99.90
77582;DHT22;66726;52.388;9.986;2023-11-22T10:53:31;3.10;99.90
77582;DHT22;66726;52.388;9.986;2023-11-22T10:56:05;3.00;99.90
77582;DHT22;66726;52.388;9.986;2023-11-22T10:58:46;2.90;99.90
77582;DHT22;66726;52.388;9.986;2023-11-22T11:01:16;3.00;99.90
77582;DHT22;66726;52.388;9.986;2023-11-22T11:03:55;3.10;99.90
77582;DHT22;66726;52.388;9.986;2023-11-22T11:06:32;3.10;99.90
77582;DHT22;66726;52.388;9.986;2023-11-22T11:09:04;3.20;99.90
77582;DHT22;66726;52.388;9.986;2023-11-22T11:11:34;3.10;99.90
77582;DHT22;66726;52.388;9.986;2023-11-22T11:14:06;3.10;99.90
77582;DHT22;66726;52.388;9.986;2023-11-22T11:16:39;3.20;99.90
77582;DHT22;66726;52.388;9.986;2023-11-22T11:19:08;3.10;99.90
77582;DHT22;66726;52.388;9.986;2023-11-22T11:21:39;3.20;99.90
77582;DHT22;66726;52.388;9.986;2023-11-22T11:24:07;3.30;99.90
77582;DHT22;66726;52.388;9.986;2023-11-22T11:26:35;3.30;99.90
77582;DHT22;66726;52.388;9.986;2023-11-22T11:29:05;3.40;99.90
77582;DHT22;66726;52.388;9.986;2023-11-22T11:31:39;3.40;99.90
77582;DHT22;66726;52.388;9.986;2023-11-22T11:34:08;3.50;99.90
77582;DHT22;66726;52.388;9.986;2023-11-22T11:36:38;3.40;99.90
77582;DHT22;66726;52.388;9.986;2023-11-22T11:39:07;3.40;99.90
77582;DHT22;66726;52.388;9.986;2023-11-22T11:41:41;3.50;99.90
77582;DHT22;66726;52.388;9.986;2023-11-22T11:44:11;3.50;99.90
77582;DHT22;66726;52.388;9.986;2023-11-22T11:46:39;3.70;99.90
77582;DHT22;66726;52.388;9.986;2023-11-22T11:49:11;3.80;99.90
77582;DHT22;66726;52.388;9.986;2023-11-22T11:51:40;3.80;99.90
77582;DHT22;66726;52.388;9.986;2023-11-22T11:54:09;3.90;99.90
77582;DHT22;66726;52.388;9.986;2023-11-22T11:56:44;3.80;99.90
77582;DHT22;66726;52.388;9.986;2023-11-22T11:59:14;3.80;99.90
77582;DHT22;66726;52.388;9.986;2023-11-22T12:01:42;3.90;99.90
77582;DHT22;66726;52.388;9.986;2023-11-22T12:04:11;4.00;99.90
77582;DHT22;66726;52.388;9.986;2023-11-22T12:06:40;3.90;99.90
77582;DHT22;66726;52.388;9.986;2023-11-22T12:09:08;4.00;99.90
77582;DHT22;66726;52.388;9.986;2023-11-22T12:11:36;4.00;99.90
77582;DHT22;66726;52.388;9.986;2023-11-22T12:14:05;4.00;99.90
77582;DHT22;66726;52.388;9.986;2023-11-22T12:16:36;4.10;99.90
77582;DHT22;66726;52.388;9.986;2023-11-22T12:19:04;4.00;99.90
77582;DHT22;66726;52.388;9.986;2023-11-22T12:21:33;4.10;99.90
77582;DHT22;66726;52.388;9.986;2023-11-22T12:24:01;4.20;99.90
77582;DHT22;66726;52.388;9.986;2023-11-22T12:26:32;4.20;99.90
77582;DHT22;66726;52.388;9.986;2023-11-22T12:29:01;4.20;99.90
77582;DHT22;66726;52.388;9.986;2023-11-22T12:31:32;4.20;99.90
77582;DHT22;66726;52.388;9.986;2023-11-22T12:34:04;4.30;99.90
77582;DHT22;66726;52.388;9.986;2023-11-22T12:36:34;4.20;99.90
77582;DHT22;66726;52.388;9.986;2023-11-22T12:39:06;4.20;99.90
77582;DHT22;66726;52.388;9.986;2023-11-22T12:41:47;4.20;99.90
77582;DHT22;66726;52.388;9.986;2023-11-22T12:44:31;4.10;99.90
77582;DHT22;66726;52.388;9.986;2023-11-22T12:47:00;4.20;99.90
77582;DHT22;66726;52.388;9.986;2023-11-22T12:49:44;4.10;99.90
77582;DHT22;66726;52.388;9.986;2023-11-22T12:52:13;4.10;99.90
77582;DHT22;66726;52.388;9.986;2023-11-22T12:54:41;4.10;99.90
77582;DHT22;66726;52.388;9.986;2023-11-22T12:57:11;4.10;99.90
77582;DHT22;66726;52.388;9.986;2023-11-22T12:59:39;4.10;99.90
77582;DHT22;66726;52.388;9.986;2023-11-22T13:02:08;4.10;99.90
77582;DHT22;66726;52.388;9.986;2023-11-22T13:04:38;4.00;99.90
77582;DHT22;66726;52.388;9.986;2023-11-22T13:07:08;3.90;99.90
77582;DHT22;66726;52.388;9.986;2023-11-22T13:09:36;4.00;99.90
77582;DHT22;66726;52.388;9.986;2023-11-22T13:12:05;3.90;99.90
77582;DHT22;66726;52.388;9.986;2023-11-22T13:14:33;3.80;99.90
77582;DHT22;66726;52.388;9.986;2023-11-22T13:17:05;3.80;99.90
77582;DHT22;66726;52.388;9.986;2023-11-22T13:19:35;3.90;99.90
77582;DHT22;66726;52.388;9.986;2023-11-22T13:22:08;3.80;99.90
77582;DHT22;66726;52.388;9.986;2023-11-22T13:24:36;3.80;99.90
77582;DHT22;66726;52.388;9.986;2023-11-22T13:27:04;3.80;99.90
77582;DHT22;66726;52.388;9.986;2023-11-22T13:29:32;3.80;99.90
77582;DHT22;66726;52.388;9.986;2023-11-22T13:32:00;3.90;99.90
77582;DHT22;66726;52.388;9.986;2023-11-22T13:34:28;3.80;99.90
77582;DHT22;66726;52.388;9.986;2023-11-22T13:36:56;3.70;99.90
77582;DHT22;66726;52.388;9.986;2023-11-22T13:39:27;3.70;99.90
77582;DHT22;66726;52.388;9.986;2023-11-22T13:42:00;3.70;99.90
77582;DHT22;66726;52.388;9.986;2023-11-22T13:44:28;3.70;99.90
77582;DHT22;66726;52.388;9.986;2023-11-22T13:46:56;3.80;99.90
77582;DHT22;66726;52.388;9.986;2023-11-22T13:49:24;3.70;99.90
77582;DHT22;66726;52.388;9.986;2023-11-22T13:51:52;3.70;99.90
77582;DHT22;66726;52.388;9.986;2023-11-22T13:54:20;3.70;99.90
77582;DHT22;66726;52.388;9.986;2023-11-22T13:56:50;3.70;99.90
77582;DHT22;66726;52.388;9.986;2023-11-22T13:59:18;3.70;99.90
77582;DHT22;66726;52.388;9.986;2023-11-22T14:01:47;3.70;99.90
77582;DHT22;66726;52.388;9.986;2023-11-22T14:04:19;3.60;99.90
77582;DHT22;66726;52.388;9.986;2023-11-22T14:06:48;3.60;99.90
77582;DHT22;66726;52.388;9.986;2023-11-22T14:09:18;3.70;99.90
77582;DHT22;66726;52.388;9.986;2023-11-22T14:11:47;3.60;99.90
77582;DHT22;66726;52.388;9.986;2023-11-22T14:14:17;3.60;99.90
77582;DHT22;66726;52.388;9.986;2023-11-22T14:16:46;3.50;99.90
77582;DHT22;66726;52.388;9.986;2023-11-22T14:19:15;3.50;99.90
77582;DHT22;66726;52.388;9.986;2023-11-22T14:21:43;3.60;99.90
77582;DHT22;66726;52.388;9.986;2023-11-22T14:24:12;3.40;99.90
77582;DHT22;66726;52.388;9.986;2023-11-22T14:26:40;3.20;99.90
77582;DHT22;66726;52.388;9.986;2023-11-22T14:29:08;3.10;99.90
77582;DHT22;66726;52.388;9.986;2023-11-22T14:31:37;3.10;99.90
77582;DHT22;66726;52.388;9.986;2023-11-22T14:34:05;3.20;99.90
77582;DHT22;66726;52.388;9.986;2023-11-22T14:36:34;3.30;99.90
77582;DHT22;66726;52.388;9.986;2023-11-22T14:39:03;3.40;99.90
77582;DHT22;66726;52.388;9.986;2023-11-22T14:41:33;3.30;99.90
77582;DHT22;66726;52.388;9.986;2023-11-22T14:44:02;3.20;99.90
77582;DHT22;66726;52.388;9.986;2023-11-22T14:46:31;3.40;99.90
77582;DHT22;66726;52.388;9.986;2023-11-22T14:49:01;3.30;99.90
77582;DHT22;66726;52.388;9.986;2023-11-22T14:51:29;3.30;99.90
77582;DHT22;66726;52.388;9.986;2023-11-22T14:54:02;3.10;99.90
77582;DHT22;66726;52.388;9.986;2023-11-22T14:56:30;3.20;99.90
77582;DHT22;66726;52.388;9.986;2023-11-22T14:58:58;3.10;99.90
77582;DHT22;66726;52.388;9.986;2023-11-22T15:01:26;3.10;99.90
77582;DHT22;66726;52.388;9.986;2023-11-22T15:03:55;3.10;99.90
77582;DHT22;66726;52.388;9.986;2023-11-22T15:06:25;3.10;99.90
77582;DHT22;66726;52.388;9.986;2023-11-22T15:08:53;3.30;99.90
77582;DHT22;66726;52.388;9.986;2023-11-22T15:11:21;3.20;99.90
77582;DHT22;66726;52.388;9.986;2023-11-22T15:13:49;3.10;99.90
77582;DHT22;66726;52.388;9.986;2023-11-22T15:16:18;3.10;99.90
77582;DHT22;66726;52.388;9.986;2023-11-22T15:18:46;3.10;99.90
77582;DHT22;66726;52.388;9.986;2023-11-22T15:21:14;3.20;99.90
77582;DHT22;66726;52.388;9.986;2023-11-22T15:23:44;3.30;99.90
77582;DHT22;66726;52.388;9.986;2023-11-22T15:26:12;3.10;99.90
77582;DHT22;66726;52.388;9.986;2023-11-22T15:28:40;3.00;99.90
77582;DHT22;66726;52.388;9.986;2023-11-22T15:31:08;3.10;99.90
77582;DHT22;66726;52.388;9.986;2023-11-22T15:33:37;2.90;99.90
77582;DHT22;66726;52.388;9.986;2023-11-22T15:36:06;2.90;99.90
77582;DHT22;66726;52.388;9.986;2023-11-22T15:38:35;2.80;99.90
77582;DHT22;66726;52.388;9.986;2023-11-22T15:41:04;2.80;99.90
77582;DHT22;66726;52.388;9.986;2023-11-22T15:43:42;2.90;99.90
77582;DHT22;66726;52.388;9.986;2023-11-22T15:46:11;2.90;99.90
77582;DHT22;66726;52.388;9.986;2023-11-22T15:48:41;3.00;99.90
77582;DHT22;66726;52.388;9.986;2023-11-22T15:51:11;3.00;99.90
77582;DHT22;66726;52.388;9.986;2023-11-22T15:53:39;3.00;99.90
77582;DHT22;66726;52.388;9.986;2023-11-22T15:56:09;2.90;99.90
77582;DHT22;66726;52.388;9.986;2023-11-22T15:58:41;2.90;99.90